Time;durP1;ratioP1;P1;durP2;ratioP2;P2;SDS_P1;SDS_P2;PMS_P1;PMS_P2;Temp;Humidity;BMP_temperature;BMP_pressure;BME280_temperature;BME280_humidity;BME280_pressure;Samples;Min_cycle;Max_cycle;Signal;HPM_P1;HPM_P2
2022/10/31 00:02:08;;;;;;;7.13;5.63;;;16.60;99.90;;;;;;4952874;28;20221;-74
2022/10/31 00:04:34;;;;;;;9.13;5.67;;;16.50;99.90;;;;;;4954371;28;20250;-75
2022/10/31 00:06:59;;;;;;;9.57;5.87;;;16.50;99.90;;;;;;4956175;28;21174;-74
2022/10/31 00:09:25;;;;;;;9.90;6.60;;;16.50;99.90;;;;;;4965062;28;20191;-75
2022/10/31 00:11:50;;;;;;;11.83;5.50;;;16.50;99.90;;;;;;4953041;28;20648;-75
2022/10/31 00:14:16;;;;;;;7.80;5.30;;;16.50;99.90;;;;;;4952032;28;20796;-74
2022/10/31 00:16:41;;;;;;;8.50;5.10;;;16.50;99.90;;;;;;4952597;28;20475;-74
2022/10/31 00:19:08;;;;;;;6.47;5.23;;;16.40;99.90;;;;;;4951952;28;20195;-73
2022/10/31 00:21:34;;;;;;;15.27;5.80;;;16.40;99.90;;;;;;4951650;28;20679;-75
2022/10/31 00:24:00;;;;;;;9.53;6.20;;;16.40;99.90;;;;;;4956115;28;20443;-74
2022/10/31 00:26:30;;;;;;;6.23;4.93;;;16.40;99.90;;;;;;4957119;28;20877;-74
2022/10/31 00:28:57;;;;;;;9.30;5.67;;;16.40;99.90;;;;;;4960529;28;20519;-74
2022/10/31 00:31:23;;;;;;;6.50;5.30;;;16.40;99.90;;;;;;4952534;28;20496;-74
2022/10/31 00:33:49;;;;;;;8.07;4.70;;;16.40;99.90;;;;;;4953079;28;21043;-74
2022/10/31 00:36:17;;;;;;;8.80;5.60;;;16.30;99.90;;;;;;4959573;28;20284;-75
2022/10/31 00:38:43;;;;;;;10.77;5.83;;;16.30;99.90;;;;;;4952371;28;20442;-75
2022/10/31 00:41:14;;;;;;;9.07;5.63;;;16.30;99.90;;;;;;4956237;28;20470;-75
2022/10/31 00:43:41;;;;;;;8.60;5.50;;;16.30;99.90;;;;;;4947524;28;21023;-75
2022/10/31 00:46:07;;;;;;;17.70;6.23;;;16.30;99.90;;;;;;4956739;28;20974;-75
2022/10/31 00:48:32;;;;;;;10.87;5.57;;;16.20;99.90;;;;;;4957663;28;20473;-74
2022/10/31 00:50:58;;;;;;;9.17;5.60;;;16.20;99.90;;;;;;4952964;28;20256;-75
2022/10/31 00:53:24;;;;;;;10.13;5.87;;;16.20;99.90;;;;;;4969045;28;20671;-74
2022/10/31 00:55:50;;;;;;;6.50;5.13;;;16.20;99.90;;;;;;4956726;28;20500;-74
2022/10/31 00:58:15;;;;;;;8.60;5.03;;;16.20;99.90;;;;;;4962257;28;20197;-75
2022/10/31 01:00:41;;;;;;;12.47;5.90;;;16.20;99.90;;;;;;4953907;28;20889;-74
2022/10/31 01:03:07;;;;;;;12.40;5.57;;;16.10;99.90;;;;;;4951619;28;20191;-74
2022/10/31 01:05:32;;;;;;;14.30;5.60;;;16.10;99.90;;;;;;4956149;28;20591;-75
2022/10/31 01:07:59;;;;;;;6.77;4.97;;;16.10;99.90;;;;;;4952048;28;20209;-73
2022/10/31 01:10:24;;;;;;;9.67;5.07;;;16.10;99.90;;;;;;4956987;28;20210;-74
2022/10/31 01:12:50;;;;;;;9.37;5.27;;;16.10;99.90;;;;;;4951332;28;20947;-73
2022/10/31 01:15:19;;;;;;;6.70;5.13;;;16.10;99.90;;;;;;4954621;28;20199;-74
2022/10/31 01:17:46;;;;;;;6.90;5.57;;;16.10;99.90;;;;;;4952959;28;20501;-74
2022/10/31 01:20:13;;;;;;;7.80;5.63;;;16.00;99.90;;;;;;4955591;28;20458;-74
2022/10/31 01:22:39;;;;;;;7.90;5.40;;;16.00;99.90;;;;;;4951908;28;20453;-74
2022/10/31 01:25:05;;;;;;;11.80;5.10;;;16.00;99.90;;;;;;4956384;28;20438;-74
2022/10/31 01:27:31;;;;;;;7.73;5.70;;;16.00;99.90;;;;;;4957796;28;20506;-74
2022/10/31 01:29:57;;;;;;;7.57;5.53;;;16.00;99.90;;;;;;4956622;28;20992;-75
2022/10/31 01:32:23;;;;;;;8.33;5.23;;;16.00;99.90;;;;;;4953704;28;20438;-74
2022/10/31 01:34:49;;;;;;;9.80;5.43;;;16.00;99.90;;;;;;4961573;28;20394;-74
2022/10/31 01:37:14;;;;;;;7.80;5.80;;;15.90;99.90;;;;;;4953109;28;20187;-74
2022/10/31 01:39:40;;;;;;;15.03;5.50;;;15.90;99.90;;;;;;4960944;28;20502;-74
2022/10/31 01:42:05;;;;;;;8.80;6.07;;;15.90;99.90;;;;;;4959570;28;20298;-74
2022/10/31 01:44:31;;;;;;;8.33;5.10;;;15.90;99.90;;;;;;4986361;28;20198;-74
2022/10/31 01:47:03;;;;;;;7.13;5.20;;;15.90;99.90;;;;;;4973840;28;20190;-74
2022/10/31 01:49:42;;;;;;;8.90;5.50;;;15.90;99.90;;;;;;4954375;28;20221;-75
2022/10/31 01:52:13;;;;;;;8.37;4.90;;;15.90;99.90;;;;;;4954351;28;20465;-75
2022/10/31 01:54:48;;;;;;;8.00;5.00;;;15.90;99.90;;;;;;4956288;28;20539;-74
2022/10/31 01:57:15;;;;;;;7.47;5.03;;;15.90;99.90;;;;;;4954879;28;20870;-75
2022/10/31 01:59:45;;;;;;;7.80;5.43;;;15.90;99.90;;;;;;4955193;28;21165;-75
2022/10/31 02:02:12;;;;;;;8.67;5.57;;;15.80;99.90;;;;;;4985788;28;20504;-76
2022/10/31 02:04:39;;;;;;;12.93;5.47;;;15.80;99.90;;;;;;4977707;28;20495;-76
2022/10/31 02:07:13;;;;;;;12.30;6.30;;;15.80;99.90;;;;;;4947668;28;21044;-74
2022/10/31 02:09:40;;;;;;;9.60;6.00;;;15.80;99.90;;;;;;4951376;28;20964;-74
2022/10/31 02:12:06;;;;;;;6.77;5.30;;;15.80;99.90;;;;;;4957027;28;20467;-75
2022/10/31 02:14:34;;;;;;;11.60;5.90;;;15.80;99.90;;;;;;4970209;28;21009;-74
2022/10/31 02:16:59;;;;;;;8.47;5.10;;;15.80;99.90;;;;;;4961861;28;20552;-77
2022/10/31 02:19:38;;;;;;;8.53;4.70;;;15.80;99.90;;;;;;4961260;28;20858;-74
2022/10/31 02:22:24;;;;;;;11.60;5.37;;;15.80;99.90;;;;;;4969434;28;20183;-73
2022/10/31 02:25:27;;;;;;;12.43;5.57;;;15.80;99.90;;;;;;4954712;28;20426;-73
2022/10/31 02:28:19;;;;;;;9.90;6.00;;;15.80;99.90;;;;;;4957984;28;20515;-75
2022/10/31 02:31:16;;;;;;;8.73;5.70;;;15.80;99.90;;;;;;4958610;28;20466;-74
2022/10/31 02:33:57;;;;;;;9.90;5.93;;;15.70;99.90;;;;;;4962184;28;21049;-74
2022/10/31 02:36:40;;;;;;;7.83;5.20;;;15.70;99.90;;;;;;4962624;28;20477;-76
2022/10/31 02:39:21;;;;;;;9.20;6.20;;;15.70;99.90;;;;;;4958706;28;20444;-75
2022/10/31 02:42:12;;;;;;;8.97;5.90;;;15.70;99.90;;;;;;4961677;28;20422;-76
2022/10/31 02:44:42;;;;;;;11.53;5.80;;;15.70;99.90;;;;;;4961707;28;21261;-75
2022/10/31 02:47:17;;;;;;;8.93;5.93;;;15.60;99.90;;;;;;4970196;28;20472;-75
2022/10/31 02:49:50;;;;;;;8.37;6.60;;;15.60;99.90;;;;;;4977276;28;20476;-75
2022/10/31 02:52:24;;;;;;;11.47;6.00;;;15.60;99.90;;;;;;4966341;28;20472;-74
2022/10/31 02:54:50;;;;;;;12.10;6.30;;;15.60;99.90;;;;;;4960020;28;20429;-75
2022/10/31 02:57:20;;;;;;;10.63;6.10;;;15.60;99.90;;;;;;4956658;28;21027;-75
2022/10/31 02:59:48;;;;;;;8.57;5.50;;;15.60;99.90;;;;;;4982852;28;20464;-77
2022/10/31 03:02:30;;;;;;;9.10;5.70;;;15.60;99.90;;;;;;4958966;28;20973;-75
2022/10/31 03:05:18;;;;;;;8.73;5.67;;;15.60;99.90;;;;;;4981802;28;20439;-76
2022/10/31 03:08:00;;;;;;;9.23;6.33;;;15.50;99.90;;;;;;4956737;28;20481;-75
2022/10/31 03:10:39;;;;;;;9.47;6.03;;;15.50;99.90;;;;;;4957855;28;20458;-76
2022/10/31 03:13:39;;;;;;;12.90;6.80;;;15.50;99.90;;;;;;4965168;28;20438;-74
2022/10/31 03:16:08;;;;;;;7.17;5.10;;;15.50;99.90;;;;;;4951023;28;20466;-76
2022/10/31 03:18:57;;;;;;;11.03;6.00;;;15.50;99.90;;;;;;4981674;28;20439;-74
2022/10/31 03:21:27;;;;;;;8.87;6.33;;;15.50;99.90;;;;;;4979977;28;20467;-74
2022/10/31 03:23:54;;;;;;;11.00;6.53;;;15.40;99.90;;;;;;4974126;28;20881;-75
2022/10/31 03:26:21;;;;;;;9.93;5.57;;;15.40;99.90;;;;;;4957574;28;20455;-74
2022/10/31 03:28:58;;;;;;;8.00;4.70;;;15.40;99.90;;;;;;4970880;28;20456;-74
2022/10/31 03:31:30;;;;;;;8.47;4.97;;;15.30;99.90;;;;;;4955652;28;20462;-74
2022/10/31 03:33:59;;;;;;;6.90;5.20;;;15.30;99.90;;;;;;4976868;28;20437;-75
2022/10/31 03:36:28;;;;;;;5.37;4.87;;;15.30;99.90;;;;;;4955612;28;20466;-74
2022/10/31 03:38:54;;;;;;;7.30;5.20;;;15.30;99.90;;;;;;4988245;28;20461;-74
2022/10/31 03:41:24;;;;;;;11.77;6.20;;;15.30;99.90;;;;;;4964569;28;20458;-74
2022/10/31 03:43:59;;;;;;;16.03;5.37;;;15.30;99.90;;;;;;4959517;28;20847;-74
2022/10/31 03:46:25;;;;;;;10.90;5.37;;;15.20;99.90;;;;;;4959816;28;20446;-74
2022/10/31 03:48:51;;;;;;;7.50;4.80;;;15.20;99.90;;;;;;4957843;28;20449;-74
2022/10/31 03:51:26;;;;;;;7.70;5.40;;;15.20;99.90;;;;;;4955730;28;20468;-74
2022/10/31 03:53:56;;;;;;;7.07;5.50;;;15.20;99.90;;;;;;4965652;28;20456;-74
2022/10/31 03:56:33;;;;;;;10.20;4.80;;;15.20;99.90;;;;;;4954081;28;20537;-74
2022/10/31 03:59:08;;;;;;;12.77;5.30;;;15.20;99.90;;;;;;4967504;28;20449;-74
2022/10/31 04:01:52;;;;;;;11.87;4.60;;;15.20;99.90;;;;;;4970749;28;20449;-76
2022/10/31 04:04:19;;;;;;;7.03;5.70;;;15.20;99.90;;;;;;4961605;28;20449;-75
2022/10/31 04:06:47;;;;;;;7.83;4.53;;;15.10;99.90;;;;;;4959327;28;20882;-75
2022/10/31 04:09:14;;;;;;;6.97;5.07;;;15.10;99.90;;;;;;4957426;28;20446;-75
2022/10/31 04:11:48;;;;;;;6.30;4.83;;;15.10;99.90;;;;;;4968046;28;20461;-76
2022/10/31 04:14:14;;;;;;;7.10;4.40;;;15.10;99.90;;;;;;4960203;28;20441;-75
2022/10/31 04:16:43;;;;;;;12.73;5.50;;;15.00;99.90;;;;;;4977312;28;20479;-76
2022/10/31 04:19:09;;;;;;;7.27;4.60;;;15.00;99.90;;;;;;4957637;28;20277;-75
2022/10/31 04:21:34;;;;;;;7.70;4.57;;;15.00;99.90;;;;;;4960712;28;20473;-75
2022/10/31 04:24:00;;;;;;;7.17;4.30;;;15.00;99.90;;;;;;4954408;28;20431;-75
2022/10/31 04:26:26;;;;;;;8.90;4.70;;;15.00;99.90;;;;;;4954803;28;20183;-75
2022/10/31 04:28:51;;;;;;;6.50;4.37;;;15.00;99.90;;;;;;4953360;28;20705;-75
2022/10/31 04:31:17;;;;;;;9.97;6.03;;;14.90;99.90;;;;;;4955153;28;20312;-75
2022/10/31 04:33:43;;;;;;;11.53;4.70;;;14.90;99.90;;;;;;4958416;28;20887;-75
2022/10/31 04:36:09;;;;;;;9.60;5.13;;;14.90;99.90;;;;;;4963061;28;20596;-75
2022/10/31 04:38:34;;;;;;;9.90;4.50;;;14.90;99.90;;;;;;4952834;28;20182;-76
2022/10/31 04:41:00;;;;;;;10.40;5.10;;;14.90;99.90;;;;;;4961432;28;20462;-76
2022/10/31 04:43:25;;;;;;;10.13;4.70;;;14.90;99.90;;;;;;4954094;28;20194;-76
2022/10/31 04:45:51;;;;;;;8.83;4.93;;;14.90;99.90;;;;;;4955147;28;20187;-76
2022/10/31 04:48:17;;;;;;;9.20;4.87;;;14.90;99.90;;;;;;4953914;28;20274;-76
2022/10/31 04:50:42;;;;;;;7.20;4.37;;;14.90;99.90;;;;;;4954820;28;20218;-76
2022/10/31 04:53:08;;;;;;;8.57;5.37;;;14.90;99.90;;;;;;4957103;28;20212;-75
2022/10/31 04:55:36;;;;;;;7.77;3.93;;;14.90;99.90;;;;;;4956415;28;20241;-75
2022/10/31 04:58:01;;;;;;;9.37;4.60;;;14.90;99.90;;;;;;4952822;28;20465;-74
2022/10/31 05:00:27;;;;;;;8.50;5.10;;;14.90;99.90;;;;;;4951368;28;20595;-74
2022/10/31 05:02:54;;;;;;;13.53;5.20;;;14.90;99.90;;;;;;4961862;28;20187;-74
2022/10/31 05:05:22;;;;;;;13.70;6.50;;;14.80;99.90;;;;;;4956329;28;20183;-74
2022/10/31 05:07:49;;;;;;;14.13;7.17;;;14.80;99.90;;;;;;4951636;28;20445;-74
2022/10/31 05:10:20;;;;;;;12.10;5.27;;;14.80;99.90;;;;;;4953347;28;20473;-75
2022/10/31 05:12:51;;;;;;;11.90;5.30;;;14.80;99.90;;;;;;4966801;28;20468;-75
2022/10/31 05:15:19;;;;;;;8.20;5.07;;;14.80;99.90;;;;;;4958431;28;21047;-75
2022/10/31 05:17:45;;;;;;;6.23;4.33;;;14.70;99.90;;;;;;4963960;28;20481;-75
2022/10/31 05:20:12;;;;;;;13.27;5.20;;;14.70;99.90;;;;;;4972178;28;20493;-74
2022/10/31 05:22:43;;;;;;;7.77;4.90;;;14.70;99.90;;;;;;4958703;28;20439;-75
2022/10/31 05:25:08;;;;;;;8.67;5.10;;;14.70;99.90;;;;;;4951453;28;20511;-74
2022/10/31 05:27:34;;;;;;;7.27;4.77;;;14.70;99.90;;;;;;4967505;28;20520;-75
2022/10/31 05:29:59;;;;;;;7.30;5.03;;;14.70;99.90;;;;;;4949089;28;20907;-74
2022/10/31 05:32:25;;;;;;;12.53;4.93;;;14.70;99.90;;;;;;4960888;28;20664;-75
2022/10/31 05:34:50;;;;;;;9.33;5.27;;;14.70;99.90;;;;;;4959205;28;20309;-75
2022/10/31 05:37:16;;;;;;;7.53;5.20;;;14.60;99.90;;;;;;4953541;28;20282;-74
2022/10/31 05:39:41;;;;;;;9.17;4.37;;;14.70;99.90;;;;;;4954621;28;20253;-75
2022/10/31 05:42:07;;;;;;;7.63;4.83;;;14.70;99.90;;;;;;4953512;28;20210;-74
2022/10/31 05:44:32;;;;;;;8.10;4.70;;;14.70;99.90;;;;;;4954910;28;20187;-76
2022/10/31 05:46:58;;;;;;;12.20;5.23;;;14.70;99.90;;;;;;4952458;28;20187;-74
2022/10/31 05:49:24;;;;;;;11.17;5.47;;;14.70;99.90;;;;;;4958913;28;20194;-74
2022/10/31 05:51:49;;;;;;;8.63;4.13;;;14.70;99.90;;;;;;4962841;28;20199;-74
2022/10/31 05:54:15;;;;;;;8.77;4.97;;;14.60;99.90;;;;;;4950785;28;20253;-74
2022/10/31 05:56:40;;;;;;;11.10;4.90;;;14.60;99.90;;;;;;4962816;28;20851;-74
2022/10/31 05:59:06;;;;;;;9.90;5.10;;;14.60;99.90;;;;;;4980095;28;20674;-76
2022/10/31 06:01:31;;;;;;;10.33;4.93;;;14.60;99.90;;;;;;4990989;28;20198;-75
2022/10/31 06:03:57;;;;;;;7.37;4.27;;;14.50;99.90;;;;;;4967432;28;20186;-75
2022/10/31 06:06:22;;;;;;;7.20;4.10;;;14.50;99.90;;;;;;4982771;28;20197;-75
2022/10/31 06:08:48;;;;;;;9.70;4.60;;;14.50;99.90;;;;;;4977858;28;20274;-75
2022/10/31 06:11:14;;;;;;;10.57;5.80;;;14.50;99.90;;;;;;4973024;28;20202;-76
2022/10/31 06:13:39;;;;;;;6.60;4.43;;;14.40;99.90;;;;;;4970137;28;20190;-76
2022/10/31 06:16:05;;;;;;;5.70;4.30;;;14.40;99.90;;;;;;4958722;28;20268;-75
2022/10/31 06:18:30;;;;;;;5.87;4.20;;;14.40;99.90;;;;;;4962718;28;20187;-74
2022/10/31 06:20:56;;;;;;;10.23;4.33;;;14.40;99.90;;;;;;4967532;28;20657;-75
2022/10/31 06:23:21;;;;;;;8.53;4.63;;;14.40;99.90;;;;;;4982422;28;20676;-75
2022/10/31 06:25:50;;;;;;;11.10;4.43;;;14.40;99.90;;;;;;4958630;28;20191;-74
2022/10/31 06:28:16;;;;;;;11.67;5.10;;;14.40;99.90;;;;;;4974911;28;20191;-74
2022/10/31 06:30:41;;;;;;;13.10;4.60;;;14.40;99.90;;;;;;4961802;28;20476;-75
2022/10/31 06:33:07;;;;;;;10.97;5.27;;;14.30;99.90;;;;;;4969729;28;20432;-73
2022/10/31 06:35:33;;;;;;;5.20;3.73;;;14.40;99.90;;;;;;4958159;28;20264;-74
2022/10/31 06:37:58;;;;;;;7.93;4.80;;;14.40;99.90;;;;;;4964997;28;20186;-77
2022/10/31 06:40:24;;;;;;;6.67;3.97;;;14.40;99.90;;;;;;4962824;28;20549;-74
2022/10/31 06:43:00;;;;;;;12.03;4.70;;;14.40;99.90;;;;;;4974558;28;20186;-74
2022/10/31 06:45:26;;;;;;;17.93;4.70;;;14.40;99.90;;;;;;4966815;28;20195;-76
2022/10/31 06:47:56;;;;;;;9.17;5.13;;;14.40;99.90;;;;;;4968350;28;20441;-74
2022/10/31 06:50:22;;;;;;;10.30;5.40;;;14.40;99.90;;;;;;4965299;28;20466;-73
2022/10/31 06:52:52;;;;;;;19.67;5.70;;;14.40;99.90;;;;;;4965836;28;20450;-74
2022/10/31 06:55:18;;;;;;;10.03;5.40;;;14.50;99.90;;;;;;4965017;28;20477;-75
2022/10/31 06:57:50;;;;;;;7.80;5.00;;;14.50;99.90;;;;;;4956555;28;20430;-74
2022/10/31 07:00:15;;;;;;;6.53;4.67;;;14.50;99.90;;;;;;4975090;28;20212;-75
2022/10/31 07:02:41;;;;;;;11.83;5.07;;;14.50;99.90;;;;;;4960709;28;20442;-73
2022/10/31 07:05:07;;;;;;;15.13;5.63;;;14.60;99.90;;;;;;4962008;28;20188;-74
2022/10/31 07:07:32;;;;;;;9.00;5.53;;;14.60;99.90;;;;;;4963057;28;20237;-74
2022/10/31 07:09:58;;;;;;;14.43;5.97;;;14.60;99.90;;;;;;4967100;28;20251;-74
2022/10/31 07:12:23;;;;;;;8.10;5.00;;;14.60;99.90;;;;;;4977099;28;20187;-75
2022/10/31 07:14:49;;;;;;;9.60;5.17;;;14.70;99.90;;;;;;4952283;28;20590;-77
2022/10/31 07:17:15;;;;;;;17.00;5.10;;;14.70;99.90;;;;;;4948186;28;20215;-76
2022/10/31 07:19:41;;;;;;;11.70;5.83;;;14.70;99.90;;;;;;4950454;28;20210;-70
2022/10/31 07:22:06;;;;;;;9.53;5.30;;;14.70;99.90;;;;;;4953275;28;20446;-70
2022/10/31 07:24:32;;;;;;;8.43;5.07;;;14.80;99.90;;;;;;4954681;28;20226;-70
2022/10/31 07:26:57;;;;;;;14.60;5.70;;;14.80;99.90;;;;;;4954471;28;20191;-72
2022/10/31 07:29:23;;;;;;;9.97;5.70;;;14.80;99.90;;;;;;4967526;28;20183;-71
2022/10/31 07:31:49;;;;;;;7.40;4.90;;;14.90;99.90;;;;;;4956438;28;20179;-72
2022/10/31 07:34:14;;;;;;;7.10;4.40;;;14.90;99.90;;;;;;4965049;28;20713;-72
2022/10/31 07:36:40;;;;;;;10.40;5.40;;;15.00;99.90;;;;;;4975606;28;20214;-72
2022/10/31 07:39:05;;;;;;;10.93;5.63;;;15.00;99.90;;;;;;4957373;28;20270;-73
2022/10/31 07:41:31;;;;;;;9.50;5.97;;;15.10;99.90;;;;;;4989794;28;20207;-72
2022/10/31 07:43:56;;;;;;;17.80;6.10;;;15.10;99.90;;;;;;4962747;28;20232;-72
2022/10/31 07:46:22;;;;;;;11.57;6.40;;;15.10;99.90;;;;;;4942026;28;20853;-71
2022/10/31 07:48:48;;;;;;;11.23;6.10;;;15.10;99.90;;;;;;4942213;28;20203;-72
2022/10/31 07:51:13;;;;;;;5.90;5.23;;;15.20;99.90;;;;;;4949900;28;20251;-70
2022/10/31 07:53:39;;;;;;;12.80;5.07;;;15.20;99.90;;;;;;4955496;28;20579;-73
2022/10/31 07:56:04;;;;;;;6.43;4.70;;;15.20;99.90;;;;;;4954532;28;20347;-73
2022/10/31 07:58:30;;;;;;;14.67;6.03;;;15.30;99.90;;;;;;4955139;28;20284;-72
2022/10/31 08:00:57;;;;;;;6.97;5.00;;;15.30;99.90;;;;;;4958296;28;20214;-72
2022/10/31 08:03:23;;;;;;;8.00;5.00;;;15.40;99.90;;;;;;4966262;28;20648;-72
2022/10/31 08:05:48;;;;;;;10.27;5.40;;;15.40;99.90;;;;;;4993062;28;20449;-72
2022/10/31 08:08:14;;;;;;;9.80;5.97;;;15.40;99.90;;;;;;4962389;28;20205;-72
2022/10/31 08:10:40;;;;;;;7.67;5.80;;;15.50;99.90;;;;;;4953784;28;20672;-73
2022/10/31 08:13:13;;;;;;;9.17;5.40;;;15.50;99.90;;;;;;4950091;28;20265;-73
2022/10/31 08:15:41;;;;;;;9.00;5.23;;;15.60;99.90;;;;;;4963814;28;20203;-73
2022/10/31 08:18:14;;;;;;;7.87;5.30;;;15.60;99.90;;;;;;4953719;28;20477;-68
2022/10/31 08:20:41;;;;;;;6.13;4.90;;;15.70;99.90;;;;;;4952253;28;20455;-69
2022/10/31 08:23:06;;;;;;;8.27;4.93;;;15.70;99.90;;;;;;4950851;28;20544;-69
2022/10/31 08:25:34;;;;;;;13.13;5.33;;;15.80;99.90;;;;;;4948097;28;20900;-65
2022/10/31 08:28:00;;;;;;;7.67;5.20;;;15.90;99.90;;;;;;4955718;28;20260;-67
2022/10/31 08:30:28;;;;;;;9.23;5.33;;;15.90;99.90;;;;;;4953109;28;20467;-72
2022/10/31 08:33:14;;;;;;;12.20;5.60;;;15.90;99.90;;;;;;4981890;28;20183;-72
2022/10/31 08:35:40;;;;;;;8.40;6.10;;;16.00;99.90;;;;;;4945426;28;20511;-71
2022/10/31 08:38:07;;;;;;;11.53;5.13;;;16.00;99.90;;;;;;4969051;28;20434;-72
2022/10/31 08:40:34;;;;;;;13.53;5.10;;;16.10;99.90;;;;;;4952438;28;20449;-69
2022/10/31 08:43:01;;;;;;;9.20;5.30;;;16.10;99.90;;;;;;4952955;28;20528;-69
2022/10/31 08:45:28;;;;;;;9.37;6.40;;;16.20;99.90;;;;;;4973237;28;20461;-73
2022/10/31 08:48:02;;;;;;;13.40;5.63;;;16.20;99.90;;;;;;4961631;28;20438;-70
2022/10/31 08:50:30;;;;;;;10.03;4.53;;;16.20;99.90;;;;;;4953187;28;20494;-69
2022/10/31 08:53:22;;;;;;;7.53;4.50;;;16.30;99.90;;;;;;4960168;28;20461;-69
2022/10/31 08:55:48;;;;;;;7.90;5.17;;;16.40;99.90;;;;;;4952259;28;20479;-72
2022/10/31 08:58:18;;;;;;;13.60;5.63;;;16.40;99.90;;;;;;4962039;28;21133;-72
2022/10/31 09:00:45;;;;;;;11.30;4.83;;;16.40;99.90;;;;;;4961148;28;21135;-71
2022/10/31 09:03:14;;;;;;;8.23;6.10;;;16.50;99.90;;;;;;4989418;28;20922;-72
2022/10/31 09:05:40;;;;;;;8.13;5.23;;;16.50;99.90;;;;;;4974857;28;21431;-71
2022/10/31 09:08:06;;;;;;;8.70;4.83;;;16.60;99.90;;;;;;4988687;28;20697;-71
2022/10/31 09:10:34;;;;;;;7.77;5.13;;;16.60;99.90;;;;;;4974460;28;20494;-71
2022/10/31 09:13:01;;;;;;;13.20;5.50;;;16.60;99.90;;;;;;4972118;28;20445;-70
2022/10/31 09:15:28;;;;;;;10.00;5.87;;;16.70;99.90;;;;;;4969249;28;20881;-70
2022/10/31 09:17:53;;;;;;;10.43;5.37;;;16.70;99.90;;;;;;4970934;28;20452;-72
2022/10/31 09:20:19;;;;;;;6.97;5.00;;;16.70;99.90;;;;;;4964660;28;20812;-69
2022/10/31 09:22:45;;;;;;;8.10;5.10;;;16.70;99.90;;;;;;4984632;28;20988;-71
2022/10/31 09:25:11;;;;;;;10.33;5.13;;;16.80;99.90;;;;;;4973664;28;20208;-70
2022/10/31 09:27:37;;;;;;;9.10;4.73;;;16.90;99.90;;;;;;4974525;28;20445;-71
2022/10/31 09:30:03;;;;;;;7.30;5.37;;;17.00;99.90;;;;;;4953565;28;20267;-70
2022/10/31 09:32:29;;;;;;;9.70;5.70;;;17.00;99.90;;;;;;4980165;28;20183;-67
2022/10/31 09:34:54;;;;;;;10.70;5.83;;;17.00;99.90;;;;;;4983523;28;20433;-69
2022/10/31 09:37:20;;;;;;;7.07;5.30;;;17.00;99.90;;;;;;4976888;28;20214;-68
2022/10/31 09:39:46;;;;;;;11.93;5.57;;;17.00;99.90;;;;;;4976095;28;20199;-69
2022/10/31 09:42:17;;;;;;;9.77;5.97;;;16.90;99.90;;;;;;4965426;28;20229;-70
2022/10/31 09:45:12;;;;;;;9.53;5.50;;;16.90;99.90;;;;;;4976961;28;20183;-70
2022/10/31 09:48:19;;;;;;;7.20;5.40;;;17.00;99.90;;;;;;4990618;28;20810;-69
2022/10/31 09:50:51;;;;;;;7.27;5.57;;;17.00;99.90;;;;;;4979843;28;20881;-70
2022/10/31 09:53:24;;;;;;;7.70;5.50;;;17.10;99.90;;;;;;4977668;28;20544;-71
2022/10/31 09:55:52;;;;;;;13.37;6.00;;;17.10;99.90;;;;;;4963302;28;20544;-72
2022/10/31 09:58:25;;;;;;;9.13;4.77;;;17.20;99.90;;;;;;4969048;28;20436;-72
2022/10/31 10:00:51;;;;;;;10.43;6.23;;;17.30;99.90;;;;;;4960345;28;20993;-71
2022/10/31 10:03:35;;;;;;;9.90;6.00;;;17.40;99.90;;;;;;4967991;28;20814;-71
2022/10/31 10:06:06;;;;;;;6.63;5.93;;;17.40;99.90;;;;;;4978587;28;21101;-71
2022/10/31 10:08:35;;;;;;;10.10;6.43;;;17.50;99.90;;;;;;4994642;28;20541;-72
2022/10/31 10:11:18;;;;;;;6.97;5.63;;;17.50;99.90;;;;;;4975660;28;20461;-70
2022/10/31 10:13:56;;;;;;;7.67;5.53;;;17.60;99.90;;;;;;4992764;28;20536;-73
2022/10/31 10:16:46;;;;;;;8.23;5.37;;;17.70;99.90;;;;;;4962582;28;20504;-73
2022/10/31 10:19:27;;;;;;;7.83;5.17;;;17.70;99.90;;;;;;4964066;28;20438;-74
2022/10/31 10:22:26;;;;;;;9.83;5.53;;;17.70;99.90;;;;;;5001917;28;20911;-77
2022/10/31 10:25:10;;;;;;;14.37;6.63;;;17.80;99.90;;;;;;4954689;28;20904;-75
2022/10/31 10:27:46;;;;;;;9.63;5.53;;;17.90;99.90;;;;;;4965111;28;20437;-75
2022/10/31 10:30:21;;;;;;;9.40;6.13;;;17.90;99.90;;;;;;4978912;28;20473;-69
2022/10/31 10:32:54;;;;;;;8.20;6.03;;;18.00;99.90;;;;;;4967524;28;20463;-69
2022/10/31 10:35:38;;;;;;;8.20;4.90;;;18.10;99.90;;;;;;4971169;28;20888;-68
2022/10/31 10:38:12;;;;;;;7.20;5.23;;;18.10;99.90;;;;;;4970655;28;20900;-68
2022/10/31 10:40:38;;;;;;;6.73;5.40;;;18.20;99.90;;;;;;4960592;28;20605;-68
2022/10/31 10:43:22;;;;;;;10.53;5.73;;;18.30;99.90;;;;;;4969090;28;20819;-69
2022/10/31 10:49:03;;;;;;;8.53;5.83;;;18.40;99.90;;;;;;4980088;28;20943;-68
2022/10/31 10:51:37;;;;;;;8.23;6.63;;;18.50;99.90;;;;;;4971510;28;20450;-68
2022/10/31 10:54:24;;;;;;;12.10;6.27;;;18.50;99.90;;;;;;4998529;28;20420;-71
2022/10/31 10:56:59;;;;;;;12.30;6.83;;;18.60;99.90;;;;;;4959476;28;20469;-69
2022/10/31 10:59:25;;;;;;;6.57;5.67;;;18.60;99.90;;;;;;4971762;28;20438;-69
2022/10/31 11:01:52;;;;;;;11.17;5.63;;;18.70;99.90;;;;;;4988725;28;20836;-68
2022/10/31 11:04:33;;;;;;;12.73;5.60;;;18.80;99.90;;;;;;4976740;28;20415;-69
2022/10/31 11:07:01;;;;;;;10.23;6.47;;;18.80;99.90;;;;;;4975156;28;20907;-70
2022/10/31 11:09:27;;;;;;;12.77;5.90;;;18.90;99.90;;;;;;4971875;28;20521;-70
2022/10/31 11:11:53;;;;;;;11.30;6.40;;;19.00;99.90;;;;;;4976623;28;20560;-72
2022/10/31 11:14:20;;;;;;;12.43;6.23;;;19.10;99.90;;;;;;4977274;28;20186;-70
2022/10/31 11:16:49;;;;;;;9.57;6.33;;;19.10;99.90;;;;;;4968065;28;20457;-70
2022/10/31 11:19:23;;;;;;;9.33;5.87;;;19.20;99.90;;;;;;4983421;28;21357;-71
2022/10/31 11:21:49;;;;;;;9.40;5.13;;;19.30;99.90;;;;;;4966709;28;20430;-73
2022/10/31 11:24:20;;;;;;;7.83;5.10;;;19.30;99.90;;;;;;4961418;28;21217;-73
2022/10/31 11:26:48;;;;;;;8.20;5.80;;;19.40;99.90;;;;;;4967367;28;20582;-72
2022/10/31 11:29:24;;;;;;;10.90;5.97;;;19.50;99.90;;;;;;4954651;28;20438;-71
2022/10/31 11:31:52;;;;;;;10.40;5.53;;;19.50;99.90;;;;;;4973149;28;20526;-71
2022/10/31 11:34:27;;;;;;;8.77;5.47;;;19.50;99.90;;;;;;4964378;28;20469;-71
2022/10/31 11:36:53;;;;;;;8.53;6.10;;;19.50;99.90;;;;;;4969919;28;20987;-70
2022/10/31 11:39:22;;;;;;;8.90;5.77;;;19.60;99.90;;;;;;4963586;28;20411;-71
2022/10/31 11:41:50;;;;;;;11.93;5.77;;;19.50;99.90;;;;;;4977965;28;20214;-73
2022/10/31 11:44:19;;;;;;;7.53;5.17;;;19.50;99.90;;;;;;4958487;28;20433;-72
2022/10/31 11:47:03;;;;;;;11.17;6.40;;;19.60;99.90;;;;;;4967614;28;20528;-73
2022/10/31 11:49:37;;;;;;;13.90;5.60;;;19.70;99.90;;;;;;4967038;28;20457;-73
2022/10/31 11:52:20;;;;;;;13.10;6.20;;;19.60;99.90;;;;;;4964458;28;20445;-73
2022/10/31 11:55:15;;;;;;;9.77;5.80;;;19.50;99.90;;;;;;4956657;28;20829;-73
2022/10/31 11:57:46;;;;;;;14.37;6.53;;;19.60;99.90;;;;;;4960785;28;20477;-73
2022/10/31 12:00:25;;;;;;;10.60;6.87;;;19.70;99.90;;;;;;4950249;28;20439;-73
2022/10/31 12:03:03;;;;;;;10.63;6.23;;;19.70;99.90;;;;;;4960488;28;20409;-74
2022/10/31 12:05:32;;;;;;;11.20;7.00;;;19.80;99.90;;;;;;4958975;28;20422;-73
2022/10/31 12:07:58;;;;;;;13.00;7.03;;;19.80;99.90;;;;;;4954165;28;20443;-73
2022/10/31 12:10:36;;;;;;;8.87;7.00;;;19.70;99.90;;;;;;4978634;28;20474;-73
2022/10/31 12:13:11;;;;;;;10.80;6.37;;;19.50;99.90;;;;;;4979842;28;20437;-72
2022/10/31 12:15:41;;;;;;;15.03;7.80;;;19.60;99.90;;;;;;4971099;28;20528;-74
2022/10/31 12:18:40;;;;;;;13.03;6.93;;;19.70;99.90;;;;;;4998945;28;20513;-74
2022/10/31 12:21:23;;;;;;;10.73;6.27;;;19.70;99.90;;;;;;4969018;28;20804;-74
2022/10/31 12:24:16;;;;;;;11.10;6.60;;;19.80;99.90;;;;;;4975980;28;20433;-74
2022/10/31 12:27:03;;;;;;;8.93;5.50;;;19.80;99.90;;;;;;4971867;28;20825;-74
2022/10/31 12:29:50;;;;;;;13.80;6.80;;;19.90;99.90;;;;;;4967537;28;20979;-74
2022/10/31 12:32:46;;;;;;;11.07;7.37;;;20.00;99.90;;;;;;4962494;28;20441;-73
2022/10/31 12:35:51;;;;;;;11.43;5.97;;;20.00;99.90;;;;;;4967901;28;20591;-73
2022/10/31 12:38:25;;;;;;;11.97;7.03;;;20.00;99.90;;;;;;4956472;28;21049;-74
2022/10/31 12:41:03;;;;;;;8.20;6.33;;;20.00;99.90;;;;;;4967996;28;20461;-73
2022/10/31 12:44:05;;;;;;;9.53;6.03;;;20.00;99.90;;;;;;4958468;28;20458;-74
2022/10/31 12:46:55;;;;;;;13.73;6.83;;;20.00;99.90;;;;;;4976597;28;20867;-73
2022/10/31 12:49:44;;;;;;;11.50;6.80;;;20.00;99.90;;;;;;4995081;28;20442;-73
2022/10/31 12:52:31;;;;;;;10.60;5.93;;;19.90;99.90;;;;;;4952999;28;20459;-73
2022/10/31 12:55:17;;;;;;;9.70;6.10;;;19.80;99.90;;;;;;4965957;28;20485;-73
2022/10/31 12:57:47;;;;;;;7.87;6.23;;;19.90;99.90;;;;;;4991355;28;20413;-73
2022/10/31 13:00:18;;;;;;;7.07;6.00;;;19.90;99.90;;;;;;4956687;28;20546;-73
2022/10/31 13:02:52;;;;;;;11.93;7.13;;;20.30;99.90;;;;;;4975603;28;20787;-73
2022/10/31 13:05:29;;;;;;;11.50;6.00;;;20.80;99.90;;;;;;4958953;28;20422;-73